createdAt,value
2019-02-08T00:00:25.190Z,23.13
2019-02-08T00:02:53.917Z,24.17
2019-02-08T00:05:23.044Z,21.10
2019-02-08T00:07:52.575Z,23.77
2019-02-08T00:10:21.966Z,23.47
2019-02-08T00:12:50.693Z,24.27
2019-02-08T00:15:21.819Z,23.40
2019-02-08T00:17:50.633Z,21.83
2019-02-08T00:20:21.622Z,22.43
2019-02-08T00:22:50.649Z,21.20
2019-02-08T00:25:20.960Z,23.80
2019-02-08T00:27:49.686Z,23.73
2019-02-08T00:30:24.741Z,18.00
2019-02-08T00:32:53.474Z,19.73
2019-02-08T00:35:22.310Z,22.47
2019-02-08T00:37:52.596Z,22.33
2019-02-08T00:40:22.726Z,21.83
2019-02-08T00:42:51.554Z,20.60
2019-02-08T00:45:21.581Z,23.07
2019-02-08T00:47:50.437Z,21.63
2019-02-08T00:50:24.929Z,20.93
2019-02-08T00:52:54.199Z,20.93
2019-02-08T00:55:23.230Z,31.97
2019-02-08T00:57:52.056Z,30.20
2019-02-08T01:00:22.529Z,26.57
2019-02-08T01:02:53.248Z,24.47
2019-02-08T01:05:23.578Z,27.43
2019-02-08T01:07:53.004Z,21.80
2019-02-08T01:10:26.776Z,20.77
2019-02-08T01:12:55.709Z,24.00
2019-02-08T01:15:26.223Z,22.37
2019-02-08T01:17:54.967Z,21.47
2019-02-08T01:20:25.171Z,20.70
2019-02-08T01:22:54.227Z,22.83
2019-02-08T01:25:32.179Z,24.47
2019-02-08T01:28:01.191Z,26.53
2019-02-08T01:30:34.482Z,33.13
2019-02-08T01:33:03.757Z,32.77
2019-02-08T01:35:32.474Z,34.13
2019-02-08T01:38:01.903Z,28.50
2019-02-08T01:40:36.185Z,26.60
2019-02-08T01:43:06.213Z,25.13
2019-02-08T01:45:35.039Z,23.83
2019-02-08T01:48:05.336Z,20.97
2019-02-08T01:50:34.080Z,25.30
2019-02-08T01:53:02.788Z,24.70
2019-02-08T01:55:31.902Z,23.03
2019-02-08T01:58:00.631Z,22.13
2019-02-08T02:00:38.505Z,24.27
2019-02-08T02:03:10.126Z,22.60
2019-02-08T02:05:38.958Z,25.93
2019-02-08T02:08:08.260Z,24.43
2019-02-08T02:10:39.627Z,23.00
2019-02-08T02:13:08.964Z,31.83
2019-02-08T02:15:37.860Z,24.30
2019-02-08T02:18:07.795Z,22.17
2019-02-08T02:20:38.528Z,22.10
2019-02-08T02:23:08.622Z,20.40
2019-02-08T02:25:37.447Z,21.87
2019-02-08T02:28:06.773Z,20.43
2019-02-08T02:30:37.137Z,23.47
2019-02-08T02:33:08.769Z,22.07
2019-02-08T02:35:37.596Z,23.67
2019-02-08T02:38:07.101Z,21.40
2019-02-08T02:40:35.830Z,23.00
2019-02-08T02:43:05.154Z,21.43
2019-02-08T02:45:39.119Z,20.47
2019-02-08T02:48:09.661Z,22.43
2019-02-08T02:50:38.786Z,21.97
2019-02-08T02:53:07.683Z,22.67
2019-02-08T02:55:36.419Z,19.37
2019-02-08T02:58:06.247Z,17.87
2019-02-08T03:00:44.061Z,20.07
2019-02-08T03:03:13.284Z,21.97
2019-02-08T03:05:42.104Z,22.00
2019-02-08T03:08:13.303Z,21.30
2019-02-08T03:10:42.124Z,20.57
2019-02-08T03:13:11.464Z,19.07
2019-02-08T03:15:40.250Z,21.13
2019-02-08T03:18:09.176Z,20.00
2019-02-08T03:20:37.903Z,19.00
2019-02-08T03:23:06.872Z,21.33
2019-02-08T03:25:35.817Z,19.53
2019-02-08T03:28:04.929Z,21.70
2019-02-08T03:30:38.736Z,22.37
2019-02-08T03:33:07.445Z,22.60
2019-02-08T03:35:36.271Z,21.37
2019-02-08T03:38:05.374Z,21.07
2019-02-08T03:40:34.298Z,18.67
2019-02-08T03:43:03.049Z,22.40
2019-02-08T03:45:39.599Z,20.87
2019-02-08T03:48:09.220Z,22.40
2019-02-08T03:50:37.950Z,23.07
2019-02-08T03:53:07.566Z,26.87
2019-02-08T03:55:36.298Z,21.63
2019-02-08T03:58:06.125Z,21.20
2019-02-08T04:00:37.220Z,20.93
2019-02-08T04:03:06.069Z,24.50
2019-02-08T04:05:35.579Z,20.43
2019-02-08T04:08:04.682Z,22.37
2019-02-08T04:10:33.604Z,22.27
2019-02-08T04:13:02.340Z,25.80
2019-02-08T04:15:31.131Z,22.77
2019-02-08T04:17:59.846Z,20.10
2019-02-08T04:20:30.153Z,19.37
2019-02-08T04:22:59.918Z,21.87
2019-02-08T04:25:28.756Z,22.33
2019-02-08T04:27:57.509Z,20.87
2019-02-08T04:30:33.425Z,21.27
2019-02-08T04:33:03.152Z,24.93
2019-02-08T04:35:31.970Z,22.27
2019-02-08T04:38:00.826Z,22.57
2019-02-08T04:40:29.549Z,21.93
2019-02-08T04:42:58.366Z,21.73
2019-02-08T04:45:27.354Z,25.60
2019-02-08T04:47:56.173Z,23.63
2019-02-08T04:50:31.089Z,33.57
2019-02-08T04:52:59.906Z,27.97
2019-02-08T04:55:28.729Z,28.10
2019-02-08T04:57:57.461Z,24.10
2019-02-08T05:00:32.008Z,26.67
2019-02-08T05:03:00.748Z,23.27
2019-02-08T05:05:29.562Z,20.00
2019-02-08T05:07:58.678Z,22.47
2019-02-08T05:10:30.102Z,26.87
2019-02-08T05:12:58.975Z,30.10
2019-02-08T05:15:28.672Z,63.87
2019-02-08T05:17:57.437Z,41.40
2019-02-08T05:20:29.053Z,31.63
2019-02-08T05:22:58.297Z,26.60
2019-02-08T05:25:27.167Z,28.10
2019-02-08T05:27:55.913Z,33.10
2019-02-08T05:30:30.127Z,29.30
2019-02-08T05:32:58.948Z,26.30
2019-02-08T05:35:28.051Z,28.03
2019-02-08T05:37:56.837Z,32.10
2019-02-08T05:40:25.652Z,29.07
2019-02-08T05:42:54.392Z,30.60
2019-02-08T05:45:25.516Z,32.67
2019-02-08T05:47:54.651Z,38.93
2019-02-08T05:50:28.287Z,37.47
2019-02-08T05:52:57.235Z,27.07
2019-02-08T05:55:30.970Z,31.97
2019-02-08T05:57:59.803Z,27.87
2019-02-08T06:00:35.840Z,23.47
2019-02-08T06:03:06.110Z,21.43
2019-02-08T06:05:35.340Z,19.20
2019-02-08T06:08:05.641Z,22.57
2019-02-08T06:10:34.354Z,19.23
2019-02-08T06:13:03.104Z,22.97
2019-02-08T06:15:32.008Z,22.27
2019-02-08T06:18:00.750Z,39.60
2019-02-08T06:20:29.524Z,44.03
2019-02-08T06:22:58.297Z,47.00
2019-02-08T06:25:27.225Z,34.03
2019-02-08T06:27:55.939Z,34.10
2019-02-08T06:30:31.670Z,28.50
2019-02-08T06:33:00.415Z,30.53
2019-02-08T06:35:30.742Z,28.63
2019-02-08T06:37:59.827Z,26.30
2019-02-08T06:40:31.629Z,25.30
2019-02-08T06:43:00.453Z,25.90
2019-02-08T06:45:29.761Z,27.30
2019-02-08T06:47:58.572Z,22.73
2019-02-08T06:50:28.399Z,24.80
2019-02-08T06:52:57.387Z,23.17
2019-02-08T06:55:26.312Z,24.53
2019-02-08T06:58:14.763Z,25.90
2019-02-08T07:00:53.792Z,23.03
2019-02-08T07:03:27.163Z,30.63
2019-02-08T07:06:13.684Z,22.70
2019-02-08T07:09:00.143Z,21.30
2019-02-08T07:11:36.470Z,21.13
2019-02-08T07:14:10.264Z,18.60
2019-02-08T07:16:52.346Z,21.13
2019-02-08T07:19:25.652Z,25.47
2019-02-08T07:22:11.959Z,17.57
2019-02-08T07:24:54.614Z,22.67
2019-02-08T07:27:24.914Z,15.13
2019-02-08T07:30:04.138Z,18.23
2019-02-08T07:32:34.442Z,16.33
2019-02-08T07:35:21.323Z,24.37
2019-02-08T07:38:06.925Z,18.97
2019-02-08T07:40:40.377Z,15.90
2019-02-08T07:43:20.094Z,16.03
2019-02-08T07:45:57.371Z,18.37
2019-02-08T07:48:31.256Z,16.10
2019-02-08T07:51:07.691Z,19.07
2019-02-08T07:53:40.905Z,17.40
2019-02-08T07:56:11.314Z,15.67
2019-02-08T07:58:47.594Z,16.10
2019-02-08T08:01:19.311Z,17.90
2019-02-08T08:04:01.041Z,16.20
2019-02-08T08:06:25.336Z,19.03
2019-02-08T08:08:58.641Z,21.17
2019-02-08T08:11:44.217Z,18.00
2019-02-08T08:14:28.535Z,19.43
2019-02-08T08:17:17.147Z,23.20
2019-02-08T08:19:48.895Z,21.73
2019-02-08T08:22:28.098Z,21.60
2019-02-08T08:25:04.518Z,19.90
2019-02-08T08:27:35.017Z,21.33
2019-02-08T08:30:14.086Z,27.30
2019-02-08T08:32:45.719Z,20.63
2019-02-08T08:35:26.946Z,19.57
2019-02-08T08:38:17.902Z,19.70
2019-02-08T08:40:52.645Z,19.47
2019-02-08T08:43:30.112Z,21.63
2019-02-08T08:46:01.812Z,22.50
2019-02-08T08:48:51.639Z,21.20
2019-02-08T08:51:53.075Z,22.83
2019-02-08T08:54:45.717Z,21.27
2019-02-08T08:57:23.106Z,20.73
2019-02-08T09:00:17.080Z,21.57
2019-02-08T09:03:01.030Z,25.30
2019-02-08T09:05:47.679Z,20.63
2019-02-08T09:08:19.728Z,21.07
2019-02-08T09:11:23.285Z,23.23
2019-02-08T09:14:03.946Z,21.67
2019-02-08T09:16:44.379Z,22.33
2019-02-08T09:19:32.775Z,20.20
2019-02-08T09:22:16.306Z,34.57
2019-02-08T09:25:14.034Z,20.53
2019-02-08T09:28:17.110Z,20.57
2019-02-08T09:30:51.380Z,19.20
2019-02-08T09:33:34.876Z,22.53
2019-02-08T09:36:21.587Z,18.03
2019-02-08T09:39:15.573Z,18.47
2019-02-08T09:42:09.657Z,18.13
2019-02-08T09:45:11.011Z,24.47
2019-02-08T09:48:16.015Z,19.43
2019-02-08T09:51:14.776Z,19.50
2019-02-08T09:53:49.156Z,51.90
2019-02-08T09:56:23.394Z,20.43
2019-02-08T09:59:06.834Z,21.90
2019-02-08T10:01:50.509Z,22.43
2019-02-08T10:04:38.317Z,19.73
2019-02-08T10:07:21.784Z,17.23
2019-02-08T10:10:14.101Z,22.17
2019-02-08T10:13:15.817Z,19.40
2019-02-08T10:15:56.307Z,16.33
2019-02-08T10:18:46.085Z,17.13
2019-02-08T10:21:40.169Z,15.97
2019-02-08T10:24:30.942Z,16.07
2019-02-08T10:27:22.546Z,16.23
2019-02-08T10:30:21.077Z,15.13
2019-02-08T10:33:07.700Z,22.83
2019-02-08T10:35:58.637Z,16.57
2019-02-08T10:38:49.798Z,15.63
2019-02-08T10:41:56.286Z,15.20
2019-02-08T10:44:47.487Z,19.90
2019-02-08T10:47:51.111Z,18.60
2019-02-08T10:50:39.781Z,16.83
2019-02-08T10:53:24.687Z,15.93
2019-02-08T10:56:14.672Z,16.23
2019-02-08T10:58:55.351Z,18.07
2019-02-08T11:01:55.433Z,18.30
2019-02-08T11:04:58.630Z,16.13
2019-02-08T11:07:39.437Z,17.07
2019-02-08T11:10:42.773Z,16.30
2019-02-08T11:13:23.682Z,19.47
2019-02-08T11:16:10.423Z,20.40
2019-02-08T11:19:04.919Z,22.10
2019-02-08T11:21:33.658Z,17.40
2019-02-08T11:24:02.400Z,16.83
2019-02-08T11:26:31.291Z,13.90
2019-02-08T11:29:00.090Z,15.67
2019-02-08T11:31:28.825Z,15.90
2019-02-08T11:33:57.615Z,18.30
2019-02-08T11:36:26.333Z,19.07
2019-02-08T11:38:55.065Z,17.63
2019-02-08T11:41:24.041Z,14.97
2019-02-08T11:43:52.765Z,19.80
2019-02-08T11:46:21.499Z,15.00
2019-02-08T11:48:50.365Z,21.13
2019-02-08T11:51:20.083Z,18.10
2019-02-08T11:53:48.827Z,23.53
2019-02-08T11:56:18.030Z,15.63
2019-02-08T11:58:46.755Z,23.30
2019-02-08T12:01:15.486Z,18.77
2019-02-08T12:03:44.250Z,23.70
2019-02-08T12:06:12.981Z,24.67
2019-02-08T12:08:41.713Z,20.53
2019-02-08T12:11:10.573Z,18.83
2019-02-08T12:13:39.306Z,22.77
2019-02-08T12:16:08.170Z,22.30
2019-02-08T12:18:37.043Z,21.03
2019-02-08T12:21:05.902Z,18.93
2019-02-08T12:23:34.623Z,16.87
2019-02-08T12:26:03.512Z,15.03
2019-02-08T12:28:32.638Z,20.33
2019-02-08T12:31:01.394Z,22.73
2019-02-08T12:33:30.267Z,24.70
2019-02-08T12:35:58.998Z,16.43
2019-02-08T12:38:27.750Z,21.73
2019-02-08T12:40:57.562Z,18.80
2019-02-08T12:43:26.294Z,18.83
2019-02-08T12:45:55.016Z,19.87
2019-02-08T12:48:23.898Z,23.17
2019-02-08T12:50:52.741Z,20.97
2019-02-08T12:53:21.478Z,24.17
2019-02-08T12:55:50.361Z,20.73
2019-02-08T12:58:19.085Z,17.97
2019-02-08T13:00:47.807Z,23.27
2019-02-08T13:03:16.696Z,18.13
2019-02-08T13:05:45.420Z,21.73
2019-02-08T13:08:14.147Z,19.87
2019-02-08T13:10:42.944Z,26.30
2019-02-08T13:13:11.668Z,22.37
2019-02-08T13:15:40.410Z,19.50
2019-02-08T13:18:09.473Z,18.00
2019-02-08T13:20:38.305Z,26.47
2019-02-08T13:23:07.033Z,23.43
2019-02-08T13:25:35.810Z,24.10
2019-02-08T13:28:04.540Z,22.03
2019-02-08T13:30:39.761Z,23.87
2019-02-08T13:33:08.666Z,50.27
2019-02-08T13:35:37.389Z,31.77
2019-02-08T13:38:06.116Z,30.60
2019-02-08T13:40:34.979Z,26.87
2019-02-08T13:43:03.705Z,24.20
2019-02-08T13:45:32.428Z,23.97
2019-02-08T13:48:01.208Z,20.30
2019-02-08T13:50:34.705Z,36.23
2019-02-08T13:53:03.825Z,19.70
2019-02-08T13:55:32.895Z,31.27
2019-02-08T13:58:01.619Z,32.43
2019-02-08T14:00:36.271Z,27.67
2019-02-08T14:03:06.345Z,26.73
2019-02-08T14:05:35.171Z,20.60
2019-02-08T14:08:04.198Z,26.90
2019-02-08T14:10:33.158Z,38.77
2019-02-08T14:13:01.884Z,23.73
2019-02-08T14:15:30.815Z,25.93
2019-02-08T14:17:59.571Z,30.70
2019-02-08T14:20:29.314Z,24.43
2019-02-08T14:22:58.042Z,24.47
2019-02-08T14:25:27.127Z,26.03
2019-02-08T14:27:55.861Z,24.23
2019-02-08T14:30:33.540Z,28.53
2019-02-08T14:33:02.381Z,40.80
2019-02-08T14:35:31.418Z,23.47
2019-02-08T14:38:02.939Z,32.23
2019-02-08T14:40:32.361Z,33.70
2019-02-08T14:43:01.204Z,37.40
2019-02-08T14:45:30.763Z,42.27
2019-02-08T14:47:59.489Z,66.93
2019-02-08T14:50:31.766Z,210.90
2019-02-08T14:53:00.659Z,549.70
2019-02-08T14:55:29.486Z,169.17
2019-02-08T14:58:03.171Z,83.43
2019-02-08T15:00:31.969Z,43.97
2019-02-08T15:03:00.700Z,100.60
2019-02-08T15:05:29.438Z,68.33
2019-02-08T15:07:58.213Z,69.47
2019-02-08T15:10:32.451Z,55.83
2019-02-08T15:13:01.389Z,70.63
2019-02-08T15:15:30.177Z,103.00
2019-02-08T15:17:58.920Z,96.63
2019-02-08T15:20:30.315Z,144.10
2019-02-08T15:22:59.082Z,95.90
2019-02-08T15:25:27.905Z,61.30
2019-02-08T15:27:56.731Z,49.27
2019-02-08T15:30:33.628Z,44.70
2019-02-08T15:33:02.368Z,25.83
2019-02-08T15:35:32.313Z,30.47
2019-02-08T15:38:01.307Z,33.80
2019-02-08T15:40:38.606Z,48.23
2019-02-08T15:43:08.271Z,56.37
2019-02-08T15:45:37.299Z,54.27
2019-02-08T15:48:06.213Z,33.07
2019-02-08T15:50:35.596Z,44.10
2019-02-08T15:53:04.323Z,52.63
2019-02-08T15:55:35.936Z,58.23
2019-02-08T15:58:05.028Z,27.20
2019-02-08T16:00:33.903Z,31.83
2019-02-08T16:03:02.645Z,34.87
2019-02-08T16:05:32.528Z,45.27
2019-02-08T16:08:01.256Z,61.00
2019-02-08T16:10:30.667Z,38.47
2019-02-08T16:12:59.544Z,79.50
2019-02-08T16:15:29.972Z,82.90
2019-02-08T16:17:58.793Z,92.50
2019-02-08T16:20:29.363Z,122.63
2019-02-08T16:23:01.746Z,199.00
2019-02-08T16:25:31.784Z,87.60
2019-02-08T16:28:00.565Z,59.37
2019-02-08T16:30:37.261Z,59.27
2019-02-08T16:33:07.989Z,27.30
2019-02-08T16:35:37.021Z,37.87
2019-02-08T16:38:07.853Z,26.60
2019-02-08T16:40:37.015Z,32.70
2019-02-08T16:43:06.558Z,32.47
2019-02-08T16:45:39.456Z,29.50
2019-02-08T16:48:10.685Z,33.13
2019-02-08T16:50:39.616Z,60.70
2019-02-08T16:53:09.780Z,35.47
2019-02-08T16:55:38.641Z,42.60
2019-02-08T16:58:09.269Z,65.90
2019-02-08T17:00:39.404Z,73.40
2019-02-08T17:03:13.572Z,94.13
2019-02-08T17:05:43.833Z,109.57
2019-02-08T17:08:12.565Z,73.97
2019-02-08T17:10:41.546Z,66.73
2019-02-08T17:13:10.303Z,42.77
2019-02-08T17:15:39.132Z,37.13
2019-02-08T17:18:09.330Z,41.87
2019-02-08T17:20:40.903Z,43.83
2019-02-08T17:23:09.735Z,39.53
2019-02-08T17:25:38.902Z,33.90
2019-02-08T17:28:08.533Z,34.03
2019-02-08T17:30:37.559Z,40.20
2019-02-08T17:33:10.444Z,132.20
2019-02-08T17:35:39.506Z,63.03
2019-02-08T17:38:08.222Z,63.73
2019-02-08T17:40:40.238Z,115.17
2019-02-08T17:43:08.978Z,148.37
2019-02-08T17:45:37.707Z,107.43
2019-02-08T17:48:09.022Z,71.13
2019-02-08T17:50:37.747Z,72.70
2019-02-08T17:53:06.475Z,98.70
2019-02-08T17:55:35.234Z,85.90
2019-02-08T17:58:04.161Z,88.17
2019-02-08T18:00:51.673Z,86.53
2019-02-08T18:03:20.410Z,61.17
2019-02-08T18:05:49.230Z,58.03
2019-02-08T18:08:18.006Z,42.63
2019-02-08T18:10:46.843Z,40.23
2019-02-08T18:13:16.675Z,33.90
2019-02-08T18:15:45.579Z,37.37
2019-02-08T18:18:16.317Z,35.93
2019-02-08T18:20:50.761Z,35.03
2019-02-08T18:23:19.593Z,68.03
2019-02-08T18:25:48.325Z,76.60
2019-02-08T18:28:17.172Z,55.63
2019-02-08T18:30:45.908Z,39.37
2019-02-08T18:33:14.644Z,69.17
2019-02-08T18:35:43.802Z,48.33
2019-02-08T18:38:12.637Z,54.80
2019-02-08T18:40:41.376Z,52.93
2019-02-08T18:43:10.236Z,50.03
2019-02-08T18:45:38.961Z,44.27
2019-02-08T18:48:08.084Z,45.97
2019-02-08T18:50:45.877Z,39.70
2019-02-08T18:53:14.615Z,34.67
2019-02-08T18:55:43.342Z,35.40
2019-02-08T18:58:18.868Z,31.33
2019-02-08T19:00:53.163Z,35.87
2019-02-08T19:03:23.152Z,36.27
2019-02-08T19:05:51.886Z,30.73
2019-02-08T19:08:20.617Z,30.00
2019-02-08T19:10:49.472Z,31.50
2019-02-08T19:13:18.206Z,30.07
2019-02-08T19:15:47.233Z,31.67
2019-02-08T19:18:16.105Z,32.87
2019-02-08T19:20:44.839Z,33.73
2019-02-08T19:23:13.565Z,31.33
2019-02-08T19:25:45.303Z,29.23
2019-02-08T19:28:15.034Z,29.27
2019-02-08T19:30:44.965Z,29.80
2019-02-08T19:33:13.734Z,25.70
2019-02-08T19:35:42.574Z,33.07
2019-02-08T19:38:11.296Z,29.03
2019-02-08T19:40:42.658Z,27.27
2019-02-08T19:43:11.394Z,30.57
2019-02-08T19:45:40.370Z,35.20
2019-02-08T19:48:10.346Z,26.33
2019-02-08T19:50:43.868Z,27.97
2019-02-08T19:53:12.807Z,26.73
2019-02-08T19:55:41.792Z,26.03
2019-02-08T19:58:11.217Z,30.67
2019-02-08T20:00:41.949Z,26.33
2019-02-08T20:03:10.819Z,36.97
2019-02-08T20:05:39.849Z,25.60
2019-02-08T20:08:10.788Z,28.47
2019-02-08T20:10:50.344Z,23.33
2019-02-08T20:13:19.069Z,21.57
2019-02-08T20:15:47.807Z,23.80
2019-02-08T20:18:17.032Z,18.87
2019-02-08T20:20:47.248Z,37.37
2019-02-08T20:23:15.980Z,43.10
2019-02-08T20:25:46.313Z,37.60
2019-02-08T20:28:15.199Z,27.00
2019-02-08T20:30:44.011Z,26.93
2019-02-08T20:33:12.789Z,45.00
2019-02-08T20:35:41.519Z,27.97
2019-02-08T20:38:10.446Z,30.33
2019-02-08T20:40:41.828Z,22.77
2019-02-08T20:43:10.551Z,29.67
2019-02-08T20:45:39.682Z,24.17
2019-02-08T20:48:20.758Z,23.00
2019-02-08T20:50:49.684Z,23.83
2019-02-08T20:53:18.938Z,22.47
2019-02-08T20:55:47.716Z,23.63
2019-02-08T20:58:16.454Z,25.83
2019-02-08T21:00:48.152Z,26.53
2019-02-08T21:03:18.704Z,25.93
2019-02-08T21:05:47.829Z,22.50
2019-02-08T21:08:17.668Z,23.97
2019-02-08T21:10:46.654Z,22.20
2019-02-08T21:13:15.672Z,20.30
2019-02-08T21:15:44.428Z,21.47
2019-02-08T21:18:13.321Z,20.93
2019-02-08T21:20:42.307Z,23.33
2019-02-08T21:23:11.136Z,23.37
2019-02-08T21:25:41.622Z,20.87
2019-02-08T21:28:10.547Z,21.70
2019-02-08T21:30:39.366Z,18.57
2019-02-08T21:33:10.198Z,18.73
2019-02-08T21:35:38.998Z,19.80
2019-02-08T21:38:08.837Z,19.77
2019-02-08T21:40:38.214Z,18.23
2019-02-08T21:43:07.536Z,18.87
2019-02-08T21:45:40.971Z,19.13
2019-02-08T21:48:11.467Z,19.33
2019-02-08T21:50:40.190Z,23.53
2019-02-08T21:53:09.024Z,23.17
2019-02-08T21:55:37.888Z,19.63
2019-02-08T21:58:07.008Z,21.77
2019-02-08T22:00:40.678Z,24.27
2019-02-08T22:03:09.849Z,21.90
2019-02-08T22:05:47.567Z,23.57
2019-02-08T22:08:16.368Z,22.70
2019-02-08T22:10:45.099Z,21.70
2019-02-08T22:13:13.924Z,20.63
2019-02-08T22:15:44.989Z,19.90
2019-02-08T22:18:13.740Z,21.83
2019-02-08T22:20:42.550Z,19.73
2019-02-08T22:23:11.394Z,22.67
2019-02-08T22:25:40.220Z,23.47
2019-02-08T22:28:09.046Z,22.07
2019-02-08T22:30:38.315Z,22.90
2019-02-08T22:33:09.140Z,23.80
2019-02-08T22:35:39.130Z,20.50
2019-02-08T22:38:08.989Z,20.00
2019-02-08T22:40:38.003Z,22.73
2019-02-08T22:43:07.025Z,21.47
2019-02-08T22:45:40.965Z,22.30
2019-02-08T22:48:09.689Z,20.70
2019-02-08T22:50:41.503Z,19.00
2019-02-08T22:53:10.707Z,21.63
2019-02-08T22:55:40.902Z,20.37
2019-02-08T22:58:10.221Z,18.80
2019-02-08T23:00:54.397Z,21.23
2019-02-08T23:03:23.128Z,18.63
2019-02-08T23:05:51.844Z,19.13
2019-02-08T23:08:21.145Z,18.63
2019-02-08T23:10:49.869Z,21.10
2019-02-08T23:13:18.595Z,17.83
2019-02-08T23:15:47.563Z,20.10
2019-02-08T23:18:16.302Z,21.63
2019-02-08T23:20:45.030Z,22.80
2019-02-08T23:23:14.172Z,20.73
2019-02-08T23:25:42.895Z,19.60
2019-02-08T23:28:11.630Z,24.67
2019-02-08T23:30:43.263Z,18.43
2019-02-08T23:33:11.996Z,25.50
2019-02-08T23:35:43.058Z,22.97
2019-02-08T23:38:11.419Z,20.40
2019-02-08T23:40:40.146Z,22.43
2019-02-08T23:43:08.991Z,21.73
2019-02-08T23:45:38.135Z,19.27
2019-02-08T23:48:06.962Z,21.47
2019-02-08T23:50:35.697Z,25.10
2019-02-08T23:53:05.288Z,21.43
2019-02-08T23:55:34.143Z,22.53
2019-02-08T23:58:02.866Z,20.90
